createdAt,value
2023-12-09T00:01:16.578Z,3.97
2023-12-09T00:04:10.871Z,5.57
2023-12-09T00:07:04.420Z,6.28
2023-12-09T00:09:59.487Z,3.65
2023-12-09T00:12:52.634Z,5.43
2023-12-09T00:15:45.572Z,6.32
2023-12-09T00:18:39.012Z,4.43
2023-12-09T00:21:33.187Z,4.95
2023-12-09T00:24:26.371Z,4.20
2023-12-09T00:27:21.021Z,4.57
2023-12-09T00:30:14.727Z,6.30
2023-12-09T00:33:08.404Z,4.47
2023-12-09T00:36:01.279Z,5.00
2023-12-09T00:38:54.278Z,3.85
2023-12-09T00:41:47.434Z,4.88
2023-12-09T00:44:42.025Z,4.03
2023-12-09T00:47:35.756Z,5.47
2023-12-09T00:50:29.542Z,4.70
2023-12-09T00:53:22.303Z,4.65
2023-12-09T00:56:15.556Z,4.30
2023-12-09T00:59:26.800Z,4.78
2023-12-09T01:02:21.998Z,4.60
2023-12-09T01:05:15.639Z,3.35
2023-12-09T01:08:08.536Z,4.55
2023-12-09T01:11:01.325Z,4.78
2023-12-09T01:13:54.532Z,3.83
2023-12-09T01:16:47.196Z,4.28
2023-12-09T01:19:42.072Z,4.47
2023-12-09T01:22:35.389Z,4.43
2023-12-09T01:25:28.787Z,3.03
2023-12-09T01:28:22.359Z,3.95
2023-12-09T01:31:15.612Z,3.90
2023-12-09T01:34:08.487Z,5.05
2023-12-09T01:37:02.960Z,3.60
2023-12-09T01:39:56.302Z,3.70
2023-12-09T01:42:49.423Z,3.97
2023-12-09T01:45:42.462Z,4.78
2023-12-09T01:48:37.118Z,4.57
2023-12-09T01:51:31.397Z,2.88
2023-12-09T01:54:27.454Z,4.38
2023-12-09T01:57:20.707Z,4.13
2023-12-09T02:00:14.824Z,4.05
2023-12-09T02:03:08.772Z,5.50
2023-12-09T02:06:02.667Z,3.78
2023-12-09T02:08:56.073Z,4.32
2023-12-09T02:11:57.487Z,4.13
2023-12-09T02:14:59.912Z,4.75
2023-12-09T02:18:03.326Z,3.53
2023-12-09T02:20:56.740Z,3.47
2023-12-09T02:23:50.987Z,3.00
2023-12-09T02:26:44.802Z,4.60
2023-12-09T02:29:46.161Z,4.05
2023-12-09T02:32:40.577Z,3.25
2023-12-09T02:35:37.887Z,4.53
2023-12-09T02:38:34.003Z,4.75
2023-12-09T02:41:29.814Z,4.35
2023-12-09T02:44:23.314Z,3.33
2023-12-09T02:47:16.854Z,4.05
2023-12-09T02:50:11.293Z,5.97
2023-12-09T02:53:04.533Z,4.35
2023-12-09T02:55:57.748Z,4.35
2023-12-09T02:58:51.814Z,4.38
2023-12-09T03:01:44.547Z,3.88
2023-12-09T03:04:37.651Z,3.80
2023-12-09T03:07:30.751Z,3.97
2023-12-09T03:10:23.674Z,6.32
2023-12-09T03:13:16.444Z,4.03
2023-12-09T03:16:11.298Z,4.30
2023-12-09T03:19:04.829Z,4.93
2023-12-09T03:21:59.001Z,4.60
2023-12-09T03:24:52.697Z,3.65
2023-12-09T03:27:45.482Z,3.92
2023-12-09T03:30:38.492Z,3.90
2023-12-09T03:33:32.724Z,3.72
2023-12-09T03:36:25.551Z,5.20
2023-12-09T03:39:18.374Z,4.50
2023-12-09T03:42:11.394Z,4.50
2023-12-09T03:45:04.907Z,3.80
2023-12-09T03:47:58.930Z,3.60
2023-12-09T03:50:53.874Z,2.85
2023-12-09T03:53:47.542Z,3.80
2023-12-09T03:56:40.525Z,3.85
2023-12-09T03:59:33.650Z,4.53
2023-12-09T04:02:26.664Z,3.45
2023-12-09T04:05:19.809Z,4.75
2023-12-09T04:08:14.176Z,4.38
2023-12-09T04:11:07.752Z,4.30
2023-12-09T04:14:00.413Z,4.68
2023-12-09T04:16:53.865Z,3.67
2023-12-09T04:19:46.530Z,5.38
2023-12-09T04:22:39.803Z,4.15
2023-12-09T04:25:34.070Z,4.35
2023-12-09T04:28:27.724Z,3.22
2023-12-09T04:31:20.368Z,4.15
2023-12-09T04:34:13.430Z,3.60
2023-12-09T04:37:06.410Z,3.17
2023-12-09T04:39:59.484Z,3.60
2023-12-09T04:42:53.993Z,3.75
2023-12-09T04:45:47.430Z,3.35
2023-12-09T04:48:40.743Z,6.90
2023-12-09T04:51:34.003Z,4.40
2023-12-09T04:54:27.633Z,4.28
2023-12-09T04:57:20.585Z,4.68
2023-12-09T05:00:15.833Z,4.00
2023-12-09T05:03:08.947Z,4.25
2023-12-09T05:06:02.855Z,3.55
2023-12-09T05:08:58.078Z,3.08
2023-12-09T05:11:51.750Z,3.72
2023-12-09T05:14:44.619Z,3.38
2023-12-09T05:17:38.986Z,2.92
2023-12-09T05:20:32.666Z,3.28
2023-12-09T05:23:25.673Z,3.30
2023-12-09T05:26:24.370Z,3.55
2023-12-09T05:29:17.675Z,4.65
2023-12-09T05:32:10.402Z,3.65
2023-12-09T05:35:04.884Z,4.82
2023-12-09T05:37:57.627Z,3.85
2023-12-09T05:40:50.687Z,2.60
2023-12-09T05:43:44.713Z,4.35
2023-12-09T05:46:38.024Z,3.40
2023-12-09T05:49:31.632Z,3.33
2023-12-09T05:52:26.215Z,3.03
2023-12-09T05:55:20.087Z,3.65
2023-12-09T05:58:14.615Z,3.55
2023-12-09T06:01:08.528Z,3.50
2023-12-09T06:04:01.654Z,3.65
2023-12-09T06:06:54.559Z,4.15
2023-12-09T06:09:49.104Z,3.85
2023-12-09T06:12:42.897Z,3.20
2023-12-09T06:15:35.547Z,3.35
2023-12-09T06:18:28.631Z,5.00
2023-12-09T06:21:22.899Z,2.95
2023-12-09T06:24:18.783Z,3.47
2023-12-09T06:27:14.324Z,2.88
2023-12-09T06:30:10.986Z,3.55
2023-12-09T06:33:04.654Z,3.60
2023-12-09T06:35:57.727Z,2.97
2023-12-09T06:38:50.779Z,3.88
2023-12-09T06:41:43.566Z,3.92
2023-12-09T06:44:38.058Z,4.40
2023-12-09T06:47:31.869Z,3.88
2023-12-09T06:50:26.525Z,3.90
2023-12-09T06:53:19.902Z,3.75
2023-12-09T06:56:20.922Z,4.15
2023-12-09T06:59:13.581Z,4.00
2023-12-09T07:02:08.298Z,3.60
2023-12-09T07:05:01.742Z,4.35
2023-12-09T07:07:55.122Z,2.88
2023-12-09T07:10:48.680Z,3.10
2023-12-09T07:13:41.969Z,3.65
2023-12-09T07:16:35.104Z,3.65
2023-12-09T07:19:30.007Z,3.05
2023-12-09T07:22:24.737Z,4.90
2023-12-09T07:25:17.912Z,3.45
2023-12-09T07:28:10.726Z,4.07
2023-12-09T07:31:03.913Z,2.35
2023-12-09T07:33:57.034Z,3.63
2023-12-09T07:36:52.090Z,3.72
2023-12-09T07:39:46.061Z,2.88
2023-12-09T07:42:39.783Z,3.58
2023-12-09T07:45:33.097Z,3.42
2023-12-09T07:48:27.128Z,3.60
2023-12-09T07:51:21.170Z,3.88
2023-12-09T07:54:16.736Z,3.70
2023-12-09T07:57:09.897Z,3.33
2023-12-09T08:00:03.659Z,4.18
2023-12-09T08:02:57.069Z,4.70
2023-12-09T08:05:51.020Z,3.70
2023-12-09T08:08:43.858Z,3.70
2023-12-09T08:11:38.069Z,3.42
2023-12-09T08:14:30.766Z,4.50
2023-12-09T08:17:23.746Z,3.65
2023-12-09T08:20:17.560Z,3.88
2023-12-09T08:23:10.801Z,4.57
2023-12-09T08:26:05.212Z,4.35
2023-12-09T08:28:59.973Z,2.88
2023-12-09T08:31:52.692Z,4.22
2023-12-09T08:34:53.616Z,3.95
2023-12-09T08:37:52.739Z,3.45
2023-12-09T08:40:45.829Z,3.05
2023-12-09T08:43:38.858Z,3.15
2023-12-09T08:46:33.126Z,3.90
2023-12-09T08:49:28.461Z,3.88
2023-12-09T08:52:22.393Z,4.05
2023-12-09T08:55:16.674Z,3.33
2023-12-09T08:58:10.059Z,3.30
2023-12-09T09:01:03.114Z,4.75
2023-12-09T09:03:58.201Z,3.58
2023-12-09T09:06:52.006Z,5.90
2023-12-09T09:09:44.891Z,4.20
2023-12-09T09:12:37.968Z,3.75
2023-12-09T09:15:31.795Z,3.85
2023-12-09T09:18:25.250Z,4.32
2023-12-09T09:21:20.134Z,3.92
2023-12-09T09:24:14.983Z,3.63
2023-12-09T09:27:07.867Z,3.50
2023-12-09T09:30:01.037Z,5.47
2023-12-09T09:32:53.815Z,5.35
2023-12-09T09:35:47.247Z,3.53
2023-12-09T09:38:42.362Z,3.63
2023-12-09T09:41:44.026Z,4.10
2023-12-09T09:44:40.831Z,3.53
2023-12-09T09:47:37.983Z,3.55
2023-12-09T09:50:35.336Z,3.78
2023-12-09T09:53:36.961Z,4.50
2023-12-09T09:56:32.220Z,4.55
2023-12-09T09:59:26.644Z,4.05
2023-12-09T10:02:22.871Z,4.63
2023-12-09T10:05:17.530Z,4.22
2023-12-09T10:08:10.883Z,3.92
2023-12-09T10:11:04.098Z,5.40
2023-12-09T10:13:58.447Z,6.13
2023-12-09T10:16:52.540Z,5.10
2023-12-09T10:19:46.294Z,3.85
2023-12-09T10:22:41.264Z,3.53
2023-12-09T10:25:34.947Z,4.15
2023-12-09T10:28:27.832Z,4.20
2023-12-09T10:31:22.233Z,7.95
2023-12-09T10:34:16.041Z,3.33
2023-12-09T10:37:10.152Z,2.90
2023-12-09T10:40:06.893Z,5.25
2023-12-09T10:42:59.995Z,3.65
2023-12-09T10:45:52.986Z,3.53
2023-12-09T10:48:47.436Z,5.07
2023-12-09T10:51:41.176Z,4.15
2023-12-09T10:54:35.244Z,3.95
2023-12-09T10:57:30.505Z,6.57
2023-12-09T11:00:25.966Z,4.63
2023-12-09T11:03:22.071Z,3.65
2023-12-09T11:06:18.784Z,3.80
2023-12-09T11:09:14.724Z,3.33
2023-12-09T11:12:09.061Z,5.00
2023-12-09T11:15:08.842Z,4.38
2023-12-09T11:18:10.252Z,5.55
2023-12-09T11:21:04.916Z,4.20
2023-12-09T11:24:00.442Z,5.53
2023-12-09T11:26:54.828Z,4.05
2023-12-09T11:29:48.917Z,4.03
2023-12-09T11:32:42.565Z,4.47
2023-12-09T11:35:37.087Z,4.72
2023-12-09T11:38:31.487Z,5.22
2023-12-09T11:41:27.255Z,5.05
2023-12-09T11:44:21.034Z,4.82
2023-12-09T11:47:14.844Z,4.38
2023-12-09T11:50:09.046Z,4.68
2023-12-09T11:53:01.661Z,5.53
2023-12-09T11:55:54.940Z,4.10
2023-12-09T11:58:49.718Z,4.57
2023-12-09T12:01:43.353Z,3.92
2023-12-09T12:04:38.925Z,4.32
2023-12-09T12:07:32.175Z,4.78
2023-12-09T12:10:27.604Z,4.32
2023-12-09T12:13:21.302Z,3.65
2023-12-09T12:16:16.476Z,4.88
2023-12-09T12:19:10.350Z,5.05
2023-12-09T12:22:04.549Z,3.67
2023-12-09T12:24:58.027Z,3.67
2023-12-09T12:27:50.979Z,3.60
2023-12-09T12:30:44.548Z,3.70
2023-12-09T12:33:41.046Z,3.28
2023-12-09T12:36:36.652Z,4.35
2023-12-09T12:39:30.232Z,4.80
2023-12-09T12:42:23.241Z,5.10
2023-12-09T12:45:20.032Z,6.15
2023-12-09T12:48:13.492Z,6.20
2023-12-09T12:51:08.861Z,4.28
2023-12-09T12:54:02.430Z,5.07
2023-12-09T12:56:56.232Z,4.72
2023-12-09T12:59:49.197Z,3.88
2023-12-09T13:02:42.134Z,4.28
2023-12-09T13:05:35.730Z,4.00
2023-12-09T13:08:30.994Z,4.13
2023-12-09T13:11:23.829Z,4.82
2023-12-09T13:14:17.243Z,4.90
2023-12-09T13:17:10.578Z,5.28
2023-12-09T13:20:05.976Z,3.92
2023-12-09T13:22:59.368Z,4.68
2023-12-09T13:25:54.203Z,3.65
2023-12-09T13:28:46.911Z,4.28
2023-12-09T13:31:39.927Z,5.22
2023-12-09T13:34:33.223Z,3.63
2023-12-09T13:37:25.962Z,5.13
2023-12-09T13:40:20.077Z,4.18
2023-12-09T13:43:14.865Z,3.97
2023-12-09T13:46:09.064Z,5.45
2023-12-09T13:49:02.281Z,3.65
2023-12-09T13:51:56.005Z,7.57
2023-12-09T13:54:50.382Z,11.98
2023-12-09T13:57:44.500Z,11.15
2023-12-09T14:00:39.525Z,7.72
2023-12-09T14:03:33.227Z,13.60
2023-12-09T14:06:26.333Z,13.23
2023-12-09T14:09:19.628Z,11.60
2023-12-09T14:12:13.484Z,18.73
2023-12-09T14:15:08.572Z,7.82
2023-12-09T14:18:03.392Z,9.35
2023-12-09T14:20:57.356Z,7.82
2023-12-09T14:23:51.388Z,9.35
2023-12-09T14:26:45.836Z,10.48
2023-12-09T14:29:39.285Z,10.50
2023-12-09T14:32:33.098Z,7.78
2023-12-09T14:35:27.370Z,7.82
2023-12-09T14:38:21.496Z,8.93
2023-12-09T14:41:15.294Z,6.97
2023-12-09T14:44:09.355Z,12.20
2023-12-09T14:47:03.409Z,10.35
2023-12-09T14:49:57.491Z,12.95
2023-12-09T14:52:52.686Z,9.20
2023-12-09T14:55:46.741Z,7.70
2023-12-09T14:58:40.678Z,13.55
2023-12-09T15:01:34.694Z,10.52
2023-12-09T15:04:28.516Z,6.88
2023-12-09T15:07:23.415Z,10.25
2023-12-09T15:10:18.940Z,9.35
2023-12-09T15:13:12.254Z,6.10
2023-12-09T15:16:05.911Z,7.90
2023-12-09T15:18:59.488Z,7.80
2023-12-09T15:21:53.553Z,6.80
2023-12-09T15:24:47.879Z,7.18
2023-12-09T15:27:42.837Z,7.80
2023-12-09T15:30:36.136Z,9.45
2023-12-09T15:33:29.221Z,7.97
2023-12-09T15:36:21.885Z,6.60
2023-12-09T15:39:17.435Z,6.18
2023-12-09T15:42:11.754Z,6.25
2023-12-09T15:45:07.711Z,7.55
2023-12-09T15:48:01.355Z,8.77
2023-12-09T15:50:54.188Z,5.93
2023-12-09T15:53:47.604Z,8.02
2023-12-09T15:56:41.226Z,7.47
2023-12-09T15:59:34.477Z,5.82
2023-12-09T16:02:29.781Z,5.88
2023-12-09T16:05:25.045Z,5.78
2023-12-09T16:08:18.016Z,5.68
2023-12-09T16:11:11.536Z,6.32
2023-12-09T16:14:05.311Z,5.50
2023-12-09T16:17:00.396Z,7.30
2023-12-09T16:19:54.571Z,7.45
2023-12-09T16:22:48.412Z,6.00
2023-12-09T16:25:41.215Z,6.20
2023-12-09T16:28:34.461Z,5.70
2023-12-09T16:31:28.451Z,6.43
2023-12-09T16:34:22.206Z,4.03
2023-12-09T16:37:17.042Z,8.18
2023-12-09T16:40:12.023Z,5.80
2023-12-09T16:43:05.318Z,5.93
2023-12-09T16:45:58.716Z,5.80
2023-12-09T16:48:53.248Z,6.13
2023-12-09T16:51:46.734Z,6.70
2023-12-09T16:54:43.503Z,5.75
2023-12-09T16:57:37.698Z,6.15
2023-12-09T17:00:31.888Z,6.00
2023-12-09T17:03:25.490Z,6.15
2023-12-09T17:06:19.532Z,6.28
2023-12-09T17:09:13.786Z,4.70
2023-12-09T17:12:10.208Z,5.95
2023-12-09T17:15:05.067Z,6.28
2023-12-09T17:17:59.110Z,5.60
2023-12-09T17:20:52.508Z,5.80
2023-12-09T17:23:48.031Z,5.75
2023-12-09T17:26:41.465Z,7.43
2023-12-09T17:29:35.693Z,5.15
2023-12-09T17:32:29.566Z,6.00
2023-12-09T17:35:23.874Z,5.18
2023-12-09T17:38:17.379Z,4.78
2023-12-09T17:41:10.317Z,5.30
2023-12-09T17:44:03.917Z,6.13
2023-12-09T17:46:58.643Z,4.30
2023-12-09T17:49:52.507Z,5.72
2023-12-09T17:52:46.584Z,4.60
2023-12-09T17:55:40.549Z,4.88
2023-12-09T17:58:34.487Z,6.03
2023-12-09T18:01:28.905Z,5.32
2023-12-09T18:04:23.570Z,6.95
2023-12-09T18:07:17.563Z,5.85
2023-12-09T18:10:13.919Z,4.75
2023-12-09T18:13:10.228Z,4.60
2023-12-09T18:16:03.953Z,6.35
2023-12-09T18:18:57.396Z,4.55
2023-12-09T18:21:52.329Z,5.43
2023-12-09T18:24:45.613Z,5.50
2023-12-09T18:27:40.610Z,4.90
2023-12-09T18:30:35.070Z,5.00
2023-12-09T18:33:30.574Z,5.82
2023-12-09T18:36:25.634Z,3.63
2023-12-09T18:39:22.745Z,4.50
2023-12-09T18:42:16.538Z,4.45
2023-12-09T18:45:11.122Z,4.25
2023-12-09T18:48:04.944Z,5.20
2023-12-09T18:51:00.659Z,4.78
2023-12-09T18:53:55.075Z,5.05
2023-12-09T18:56:50.177Z,4.35
2023-12-09T18:59:44.113Z,5.28
2023-12-09T19:02:37.403Z,4.95
2023-12-09T19:05:30.535Z,4.95
2023-12-09T19:08:23.637Z,5.20
2023-12-09T19:11:17.826Z,3.67
2023-12-09T19:14:12.709Z,5.13
2023-12-09T19:17:06.545Z,4.45
2023-12-09T19:19:59.813Z,4.70
2023-12-09T19:22:53.566Z,4.68
2023-12-09T19:25:46.551Z,3.70
2023-12-09T19:28:39.825Z,4.25
2023-12-09T19:31:35.204Z,5.13
2023-12-09T19:34:29.014Z,4.70
2023-12-09T19:37:22.493Z,3.60
2023-12-09T19:40:15.821Z,4.78
2023-12-09T19:43:09.781Z,5.03
2023-12-09T19:46:04.949Z,4.07
2023-12-09T19:49:01.252Z,6.00
2023-12-09T19:51:55.573Z,3.30
2023-12-09T19:54:49.246Z,4.85
2023-12-09T19:57:43.042Z,4.45
2023-12-09T20:00:38.063Z,4.03
2023-12-09T20:03:32.282Z,4.65
2023-12-09T20:06:28.934Z,4.68
2023-12-09T20:09:23.215Z,4.45
2023-12-09T20:12:17.336Z,4.80
2023-12-09T20:15:12.517Z,4.45
2023-12-09T20:18:06.126Z,4.32
2023-12-09T20:20:59.867Z,6.03
2023-12-09T20:23:55.010Z,3.22
2023-12-09T20:26:48.650Z,3.70
2023-12-09T20:29:43.512Z,4.30
2023-12-09T20:32:36.977Z,5.18
2023-12-09T20:35:30.503Z,3.83
2023-12-09T20:38:23.816Z,4.40
2023-12-09T20:41:18.914Z,4.45
2023-12-09T20:44:12.680Z,4.53
2023-12-09T20:47:06.904Z,3.45
2023-12-09T20:50:00.967Z,4.20
2023-12-09T20:52:54.727Z,3.83
2023-12-09T20:55:48.933Z,5.60
2023-12-09T20:58:43.996Z,3.88
2023-12-09T21:01:45.099Z,4.82
2023-12-09T21:04:38.958Z,5.55
2023-12-09T21:07:33.704Z,3.58
2023-12-09T21:10:27.490Z,3.25
2023-12-09T21:13:20.784Z,3.67
2023-12-09T21:16:15.968Z,5.00
2023-12-09T21:19:09.787Z,3.95
2023-12-09T21:22:04.320Z,5.10
2023-12-09T21:24:59.031Z,4.32
2023-12-09T21:27:52.605Z,4.07
2023-12-09T21:30:45.545Z,4.25
2023-12-09T21:33:39.854Z,5.18
2023-12-09T21:36:33.586Z,4.47
2023-12-09T21:39:26.484Z,4.07
2023-12-09T21:42:19.732Z,6.55
2023-12-09T21:45:15.557Z,4.32
2023-12-09T21:48:10.497Z,4.00
2023-12-09T21:51:06.323Z,3.95
2023-12-09T21:53:59.697Z,4.78
2023-12-09T21:56:53.613Z,4.22
2023-12-09T21:59:46.559Z,3.80
2023-12-09T22:02:39.685Z,3.92
2023-12-09T22:05:34.351Z,4.00
2023-12-09T22:08:29.365Z,5.32
2023-12-09T22:11:22.451Z,4.68
2023-12-09T22:14:15.719Z,3.55
2023-12-09T22:17:09.615Z,3.88
2023-12-09T22:20:02.633Z,4.47
2023-12-09T22:22:56.305Z,3.75
2023-12-09T22:25:51.032Z,4.00
2023-12-09T22:28:44.854Z,3.92
2023-12-09T22:31:42.017Z,2.38
2023-12-09T22:34:35.970Z,3.17
2023-12-09T22:37:29.683Z,4.35
2023-12-09T22:40:22.936Z,4.53
2023-12-09T22:43:17.984Z,4.28
2023-12-09T22:46:12.451Z,3.60
2023-12-09T22:49:05.999Z,4.13
2023-12-09T22:51:59.734Z,3.95
2023-12-09T22:54:53.784Z,3.53
2023-12-09T22:57:47.594Z,4.78
2023-12-09T23:00:41.898Z,3.20
2023-12-09T23:03:35.657Z,3.85
2023-12-09T23:06:29.286Z,2.90
2023-12-09T23:09:22.509Z,4.13
2023-12-09T23:12:16.061Z,4.32
2023-12-09T23:15:11.212Z,4.32
2023-12-09T23:18:05.983Z,3.60
2023-12-09T23:20:59.729Z,3.90
2023-12-09T23:23:52.468Z,2.90
2023-12-09T23:26:45.874Z,3.78
2023-12-09T23:29:39.663Z,3.50
2023-12-09T23:32:32.994Z,3.75
2023-12-09T23:35:27.992Z,3.63
2023-12-09T23:38:22.136Z,3.95
2023-12-09T23:41:15.764Z,3.60
2023-12-09T23:44:09.873Z,4.10
2023-12-09T23:47:03.751Z,3.83
2023-12-09T23:49:56.987Z,2.88
2023-12-09T23:52:52.000Z,4.15
2023-12-09T23:55:46.072Z,2.75
2023-12-09T23:58:39.677Z,3.08
